Hlavní strana
METAR-TAF:

METAR-TAF

Letiště :

Rolla National Airport

Rolla, Missouri, Spojené státy americké

zeměpisná šířka: 38-07-55N, zeměpisná délka: 091-45-55W, výška: 350 m

Aktuální stav počasí

Zpráva byla vytvořena před 43 minutami, v 09:53 UTC
Jihozápadní vítr 5 kt
Teplota 1°C
Vlhkost vzduchu 93%
Tlak 1009 hPa
Viditelnost: 0.4 km
mlha

METAR: KVIH 240953Z AUTO 22005KT 1/4SM FG VV002 01/00 A2979 RMK AO2 UPB0858E34 SLP095 P0001 T00060000

Čas: 04:36 (10:36 UTC)


TAF: chybějící

Stav a předpovědi počasí z více než 4 000 letišť (zprávy METAR a TAF).

Červené a žluté tečky na mapě představují dostupné meteorologické stanice.

Když kurzor umístíte na tečku, zobrazí se název stanice.

Pak kliknutím zobrazíte stav a předpověď počasí.

Chcete-li změnit mapu, kliknutím na zelené tlačítko se znaménkem +mapu přiblížíte, kliknutím na zelené tlačítko se znaménkem – mapu oddálíte a kliknutím na zelené šipky přejdete na sousední mapy.


METAR-TAF: